Time;durP1;ratioP1;P1;durP2;ratioP2;P2;SDS_P1;SDS_P2;PMS_P1;PMS_P2;Temp;Humidity;BMP_temperature;BMP_pressure;BME280_temperature;BME280_humidity;BME280_pressure;Samples;Min_cycle;Max_cycle;Signal;HPM_P1;HPM_P2
2022/06/02 00:02:45;;;;;;;9.75;8.75;;;;;;;10.65;73.92;101751.41;3561229;40;20053;-62
2022/06/02 00:06:09;;;;;;;9.73;8.73;;;;;;;10.62;73.78;101744.34;3552923;40;20300;-62
2022/06/02 00:09:18;;;;;;;9.15;8.15;;;;;;;10.41;73.83;101714.00;3534528;40;20060;-62
2022/06/02 00:12:12;;;;;;;9.35;8.40;;;;;;;10.55;73.50;101742.03;3561314;40;20414;-62
2022/06/02 00:15:19;;;;;;;8.93;7.97;;;;;;;10.54;73.75;101743.00;3559173;40;20152;-62
2022/06/02 00:18:21;;;;;;;9.77;8.32;;;;;;;10.48;73.66;101751.34;3561359;40;20112;-62
2022/06/02 00:21:12;;;;;;;10.95;8.30;;;;;;;10.45;73.42;101742.47;3561834;40;20305;-62
2022/06/02 00:23:46;;;;;;;10.02;8.45;;;;;;;10.43;73.33;101747.06;3560179;40;20049;-63
2022/06/02 00:26:53;;;;;;;9.32;8.45;;;;;;;10.39;74.03;101748.13;3561780;40;20150;-62
2022/06/02 00:29:30;;;;;;;9.85;8.85;;;;;;;10.37;74.39;101744.66;3560752;40;20057;-62
2022/06/02 00:32:17;;;;;;;12.25;8.02;;;;;;;10.27;73.95;101732.56;3561905;40;20119;-62
2022/06/02 00:35:13;;;;;;;11.60;9.50;;;;;;;10.29;73.87;101752.19;3561805;40;20319;-62
2022/06/02 00:38:18;;;;;;;10.05;9.10;;;;;;;10.27;74.90;101747.81;3561455;40;20068;-63
2022/06/02 00:40:46;;;;;;;10.55;9.45;;;;;;;10.21;75.06;101748.94;3561296;40;20057;-62
2022/06/02 00:43:54;;;;;;;11.43;9.50;;;;;;;10.18;75.54;101752.66;3561978;40;20049;-62
2022/06/02 00:46:59;;;;;;;12.88;10.77;;;;;;;10.13;75.05;101756.47;3561365;40;20281;-63
2022/06/02 00:49:30;;;;;;;13.25;10.57;;;;;;;10.11;75.40;101758.34;3561226;40;20053;-62
2022/06/02 00:52:14;;;;;;;12.52;10.05;;;;;;;10.09;76.00;101755.75;3562754;40;20404;-63
2022/06/02 00:58:09;;;;;;;12.10;10.45;;;;;;;9.95;75.95;101759.03;3560980;40;20115;-62
2022/06/02 01:00:49;;;;;;;13.07;9.82;;;;;;;9.95;75.94;101767.09;3562417;40;20057;-63
2022/06/02 01:03:31;;;;;;;10.50;9.48;;;;;;;9.92;75.96;101761.84;3562134;40;20071;-63
2022/06/02 01:06:26;;;;;;;11.63;10.23;;;;;;;9.92;75.54;101763.66;3561172;40;20061;-62
2022/06/02 01:09:03;;;;;;;12.60;10.40;;;;;;;9.89;75.92;101756.63;3561619;40;20063;-63
2022/06/02 01:12:13;;;;;;;11.27;10.07;;;;;;;9.86;75.47;101751.38;3561395;40;20142;-62
2022/06/02 01:14:48;;;;;;;12.07;10.75;;;;;;;9.75;75.97;101756.38;3558208;40;20061;-62
2022/06/02 01:17:28;;;;;;;12.95;11.27;;;;;;;9.69;76.42;101767.38;3562221;40;20380;-62
2022/06/02 01:20:17;;;;;;;11.75;10.55;;;;;;;9.61;77.14;101770.38;3562050;40;20057;-62
2022/06/02 01:23:25;;;;;;;12.00;10.65;;;;;;;9.56;76.85;101756.28;3562015;40;20057;-62
2022/06/02 01:26:27;;;;;;;15.77;11.48;;;;;;;9.51;77.77;101752.91;3560337;40;20311;-63
2022/06/02 01:29:04;;;;;;;13.35;12.00;;;;;;;9.47;78.19;101757.53;3558750;40;20056;-62
2022/06/02 01:31:49;;;;;;;14.60;12.50;;;;;;;9.43;78.50;101755.94;3560332;40;20408;-63
2022/06/02 01:34:39;;;;;;;13.82;11.95;;;;;;;9.38;78.55;101760.59;3562089;40;20060;-62
2022/06/02 01:37:55;;;;;;;13.13;11.73;;;;;;;9.35;79.04;101763.41;3560368;40;20045;-62
2022/06/02 01:40:51;;;;;;;13.90;11.80;;;;;;;9.36;78.47;101769.69;3560107;40;20057;-63
2022/06/02 01:43:27;;;;;;;11.93;10.80;;;;;;;9.35;77.75;101763.41;3561145;40;20054;-62
2022/06/02 01:46:26;;;;;;;14.63;11.02;;;;;;;8.97;77.40;101701.50;3562749;40;20061;-63
2022/06/02 01:49:06;;;;;;;12.95;11.18;;;;;;;9.33;77.14;101769.81;3562302;40;20406;-62
2022/06/02 01:52:15;;;;;;;13.38;11.95;;;;;;;9.26;77.77;101766.47;3561721;40;20379;-62
2022/06/02 01:55:15;;;;;;;15.80;11.77;;;;;;;9.19;78.24;101762.31;3562067;40;20049;-63
2022/06/02 01:58:00;;;;;;;14.13;12.63;;;;;;;9.15;78.16;101763.38;3562478;40;20059;-63
2022/06/02 02:00:32;;;;;;;16.52;13.45;;;;;;;8.76;79.05;101711.31;3562438;40;20070;-62
2022/06/02 02:03:45;;;;;;;16.65;13.05;;;;;;;9.07;79.45;101775.31;3562952;40;20061;-63
2022/06/02 02:07:14;;;;;;;16.40;13.48;;;;;;;9.00;79.17;101776.47;3533468;40;20130;-63
2022/06/02 02:09:40;;;;;;;15.48;13.88;;;;;;;8.99;79.10;101774.72;3560988;40;20060;-63
2022/06/02 02:12:23;;;;;;;18.48;15.02;;;;;;;8.97;78.65;101770.34;3561808;40;20061;-63
2022/06/02 02:15:31;;;;;;;19.23;15.13;;;;;;;8.96;78.04;101771.28;3559044;40;20061;-63
2022/06/02 02:18:24;;;;;;;20.35;16.10;;;;;;;8.93;78.06;101768.72;3560270;40;20988;-63
2022/06/02 02:21:19;;;;;;;19.95;16.02;;;;;;;8.91;78.63;101773.28;3560285;40;20057;-63
2022/06/02 02:24:23;;;;;;;18.75;15.35;;;;;;;8.89;78.39;101775.16;3560515;40;20464;-63
2022/06/02 02:27:02;;;;;;;18.63;15.80;;;;;;;8.86;77.74;101780.66;3560583;40;20062;-63
2022/06/02 02:29:57;;;;;;;20.52;16.50;;;;;;;8.81;78.31;101778.13;3560548;40;20057;-63
2022/06/02 02:32:55;;;;;;;25.02;17.45;;;;;;;8.74;78.02;101781.97;3559716;40;20310;-63
2022/06/02 02:35:27;;;;;;;22.35;17.20;;;;;;;8.72;78.24;101779.38;3560365;40;20061;-64
2022/06/02 02:38:28;;;;;;;19.45;17.35;;;;;;;8.71;78.98;101779.41;3560596;40;20057;-63
2022/06/02 02:41:06;;;;;;;18.00;15.88;;;;;;;8.70;78.52;101777.69;3560582;40;20084;-63
2022/06/02 02:43:45;;;;;;;21.05;15.57;;;;;;;8.65;78.31;101771.63;3559897;40;20419;-63
2022/06/02 02:46:23;;;;;;;21.23;15.65;;;;;;;8.60;78.10;101774.50;3551295;40;20065;-63
2022/06/02 02:49:20;;;;;;;25.20;16.77;;;;;;;8.56;78.34;101778.19;3550132;40;20323;-63
2022/06/02 02:52:16;;;;;;;21.00;16.08;;;;;;;8.52;78.05;101782.81;3551602;40;20061;-63
2022/06/02 02:55:09;;;;;;;19.15;16.13;;;;;;;8.50;78.49;101779.31;3551243;40;20407;-63
2022/06/02 02:58:10;;;;;;;17.65;15.73;;;;;;;8.49;78.05;101782.06;3550578;40;20061;-63
2022/06/02 03:00:45;;;;;;;21.02;15.35;;;;;;;8.44;78.36;101792.09;3550679;40;20401;-63
2022/06/02 03:03:26;;;;;;;20.58;16.20;;;;;;;8.43;78.44;101787.63;3552047;40;20062;-63
2022/06/02 03:06:27;;;;;;;19.40;16.30;;;;;;;8.37;78.44;101786.03;3551896;40;20057;-63
2022/06/02 03:09:05;;;;;;;18.38;15.20;;;;;;;8.35;78.34;101796.81;3552141;40;20061;-63
2022/06/02 03:11:53;;;;;;;19.40;16.60;;;;;;;8.34;78.76;101795.06;3551077;40;20066;-63
2022/06/02 03:14:56;;;;;;;19.05;16.40;;;;;;;8.33;78.48;101797.78;3549454;40;20050;-64
2022/06/02 03:17:55;;;;;;;19.88;16.02;;;;;;;8.29;78.08;101801.53;3550369;40;20088;-63
2022/06/02 03:21:13;;;;;;;19.75;17.08;;;;;;;8.28;79.12;101799.78;3550272;40;20094;-62
2022/06/02 03:24:11;;;;;;;22.15;17.60;;;;;;;8.27;78.61;101804.25;3551215;40;20093;-63
2022/06/02 03:27:02;;;;;;;21.92;18.20;;;;;;;8.28;79.00;101806.00;3550424;40;20056;-64
2022/06/02 03:30:11;;;;;;;23.42;18.15;;;;;;;8.31;79.02;101807.72;3551143;40;20085;-63
2022/06/02 03:33:01;;;;;;;23.83;18.67;;;;;;;8.31;79.03;101821.09;3551509;40;20050;-63
2022/06/02 03:35:59;;;;;;;22.40;19.55;;;;;;;8.31;78.96;101819.28;3549851;40;20056;-62
2022/06/02 03:38:56;;;;;;;21.42;18.48;;;;;;;8.32;78.48;101818.34;3542312;40;20057;-63
2022/06/02 03:42:00;;;;;;;23.27;18.75;;;;;;;8.32;78.92;101822.84;3548943;40;20064;-63
2022/06/02 03:44:43;;;;;;;22.08;18.67;;;;;;;8.32;78.20;101830.88;3550923;40;20053;-63
2022/06/02 03:47:18;;;;;;;22.02;18.42;;;;;;;8.33;78.42;101838.84;3553131;40;20064;-64
2022/06/02 03:50:10;;;;;;;21.90;19.52;;;;;;;8.33;78.53;101827.25;3557948;40;20277;-63
2022/06/02 03:53:20;;;;;;;23.60;20.33;;;;;;;8.42;78.88;101831.44;3561285;40;20097;-65
2022/06/02 03:56:19;;;;;;;25.17;20.85;;;;;;;8.46;78.31;101830.38;3560320;40;20061;-66
2022/06/02 03:58:50;;;;;;;24.00;20.30;;;;;;;8.48;78.80;101840.13;3559054;40;20065;-65
2022/06/02 04:01:26;;;;;;;25.73;20.38;;;;;;;8.48;77.80;101839.25;3560111;40;20106;-65
2022/06/02 04:04:13;;;;;;;23.27;19.63;;;;;;;8.50;78.02;101835.59;3560753;40;20124;-65
2022/06/02 04:07:19;;;;;;;22.60;19.85;;;;;;;8.53;77.50;101840.84;3560456;40;20065;-65
2022/06/02 04:10:02;;;;;;;23.83;19.52;;;;;;;8.56;77.14;101839.84;3559107;40;20061;-65
2022/06/02 04:16:24;;;;;;;24.27;20.98;;;;;;;8.59;78.27;101840.63;3560902;40;20127;-65
2022/06/02 04:22:38;;;;;;;28.27;24.60;;;;;;;8.58;79.78;101852.25;3559620;40;20089;-65
2022/06/02 04:25:51;;;;;;;29.50;22.48;;;;;;;8.59;79.94;101854.03;3559545;40;20097;-65
2022/06/02 04:28:43;;;;;;;27.48;22.63;;;;;;;8.63;80.01;101853.88;3561375;40;20124;-65
2022/06/02 04:31:48;;;;;;;25.48;22.75;;;;;;;8.66;79.23;101862.72;3560833;40;20150;-65
2022/06/02 04:34:34;;;;;;;27.27;23.10;;;;;;;8.66;80.10;101860.03;3550699;40;20461;-66
2022/06/02 04:37:37;;;;;;;28.30;24.05;;;;;;;8.70;80.31;101867.00;3559590;40;20063;-64
2022/06/02 04:40:37;;;;;;;34.03;26.33;;;;;;;8.78;80.72;101869.41;3559743;40;20416;-65
2022/06/02 04:43:41;;;;;;;30.40;25.17;;;;;;;8.88;79.78;101860.09;3558679;40;20328;-65
2022/06/02 04:46:27;;;;;;;31.75;26.40;;;;;;;8.96;80.55;101868.69;3557414;40;20061;-65
2022/06/02 04:49:23;;;;;;;33.05;27.00;;;;;;;9.04;80.10;101866.59;3561630;40;20061;-65
2022/06/02 04:52:14;;;;;;;29.35;26.25;;;;;;;9.09;79.21;101865.53;3561286;40;20068;-65
2022/06/02 04:55:20;;;;;;;29.65;26.55;;;;;;;9.15;79.24;101878.72;3560691;40;20049;-66
2022/06/02 04:58:22;;;;;;;30.85;26.10;;;;;;;9.20;79.46;101860.66;3555831;40;20367;-65
2022/06/02 05:01:14;;;;;;;30.80;25.27;;;;;;;9.30;79.24;101875.44;3559739;40;20095;-66
2022/06/02 05:04:05;;;;;;;33.10;28.88;;;;;;;9.36;79.57;101872.50;3559060;40;20085;-65
2022/06/02 05:06:52;;;;;;;31.08;26.83;;;;;;;9.41;79.60;101875.00;3560094;40;20061;-65
2022/06/02 05:09:54;;;;;;;32.80;27.00;;;;;;;9.46;79.98;101879.25;3559905;40;20068;-64
2022/06/02 05:13:26;;;;;;;34.25;29.45;;;;;;;9.54;79.47;101881.63;3562041;40;20099;-65
2022/06/02 05:16:24;;;;;;;33.80;29.27;;;;;;;9.57;79.81;101875.25;3544598;40;20060;-65
2022/06/02 05:19:34;;;;;;;36.38;30.33;;;;;;;9.65;79.40;101873.16;3561698;40;20057;-66
2022/06/02 05:22:26;;;;;;;36.13;30.63;;;;;;;9.71;79.30;101872.91;3561002;40;20054;-66
2022/06/02 05:25:33;;;;;;;33.95;28.60;;;;;;;9.79;79.22;101872.56;3561236;40;20348;-65
2022/06/02 05:28:27;;;;;;;33.20;28.13;;;;;;;9.84;79.54;101878.63;3560569;40;20118;-65
2022/06/02 05:31:19;;;;;;;32.10;28.55;;;;;;;9.88;79.47;101873.03;3562030;40;20143;-65
2022/06/02 05:34:18;;;;;;;33.90;30.05;;;;;;;9.97;78.63;101875.34;3560668;40;20041;-65
2022/06/02 05:37:31;;;;;;;35.83;29.48;;;;;;;10.05;78.68;101874.13;3559643;40;20376;-65
2022/06/02 05:40:31;;;;;;;32.25;28.70;;;;;;;10.15;78.80;101871.00;3560878;40;20063;-66
2022/06/02 05:43:38;;;;;;;32.70;28.85;;;;;;;10.27;79.16;101869.59;3560871;40;20061;-66
2022/06/02 05:46:13;;;;;;;34.63;30.38;;;;;;;10.38;79.08;101875.41;3556031;40;20097;-65
2022/06/02 05:49:00;;;;;;;34.00;29.20;;;;;;;10.49;78.30;101876.72;3555419;40;20057;-65
2022/06/02 05:52:11;;;;;;;31.50;28.10;;;;;;;10.65;77.95;101883.16;3553984;40;20061;-65
2022/06/02 05:55:00;;;;;;;32.47;28.73;;;;;;;10.85;77.94;101887.66;3551918;40;20050;-65
2022/06/02 05:57:34;;;;;;;30.80;27.52;;;;;;;11.09;77.67;101882.94;3551972;40;20107;-65
2022/06/02 06:00:46;;;;;;;31.10;26.85;;;;;;;11.39;76.57;101894.94;3552465;40;20057;-65
2022/06/02 06:03:40;;;;;;;29.00;25.90;;;;;;;11.52;74.64;101886.28;3552485;40;20046;-65
2022/06/02 06:06:28;;;;;;;;;;;;;;;11.75;74.72;101895.91;3552394;40;20128;-66
2022/06/02 06:09:24;;;;;;;28.23;25.27;;;;;;;11.98;75.05;101906.44;3551352;40;19947;-65
2022/06/02 06:12:26;;;;;;;27.38;24.38;;;;;;;12.21;74.00;101907.97;3550570;40;20050;-66
2022/06/02 06:15:26;;;;;;;26.70;23.77;;;;;;;12.45;72.48;101904.94;3551417;40;20046;-66
2022/06/02 06:18:25;;;;;;;24.25;21.55;;;;;;;12.78;72.61;101908.56;3551124;40;20054;-66
2022/06/02 06:21:18;;;;;;;24.50;20.58;;;;;;;13.04;71.55;101913.50;3552557;40;20092;-65
2022/06/02 06:24:23;;;;;;;25.23;18.85;;;;;;;13.27;69.40;101915.81;3551616;40;20054;-68
2022/06/02 06:27:15;;;;;;;21.48;17.70;;;;;;;13.47;71.16;101915.56;3550880;40;20045;-65
2022/06/02 06:30:05;;;;;;;16.73;14.55;;;;;;;13.61;69.95;101912.09;3543619;40;20086;-65
2022/06/02 06:32:58;;;;;;;16.55;14.85;;;;;;;13.89;68.05;101918.59;3553635;40;20061;-65
2022/06/02 06:35:37;;;;;;;17.83;15.90;;;;;;;14.05;68.42;101914.06;3554945;40;20115;-65
2022/06/02 06:38:28;;;;;;;18.10;16.10;;;;;;;14.23;67.53;101930.13;3550842;40;20075;-65
2022/06/02 06:41:36;;;;;;;16.13;14.48;;;;;;;14.46;67.34;101935.06;3551015;40;20097;-64
2022/06/02 06:44:24;;;;;;;14.27;12.88;;;;;;;14.67;66.99;101932.03;3551968;40;21230;-67
2022/06/02 06:47:15;;;;;;;13.23;11.88;;;;;;;14.79;65.04;101932.13;3554076;40;20300;-65
2022/06/02 06:50:05;;;;;;;13.45;11.73;;;;;;;14.95;65.72;101940.16;3561330;40;20056;-64
2022/06/02 06:52:35;;;;;;;12.85;11.50;;;;;;;15.14;64.14;101945.31;3560183;40;20061;-64
2022/06/02 06:55:36;;;;;;;12.98;11.68;;;;;;;15.22;63.23;101942.09;3559816;40;20123;-65
2022/06/02 06:58:23;;;;;;;14.25;11.77;;;;;;;15.45;62.98;101952.34;3560115;40;20148;-64
2022/06/02 07:01:15;;;;;;;11.45;9.77;;;;;;;15.47;60.98;101944.97;3559267;40;20064;-65
2022/06/02 07:03:59;;;;;;;11.15;9.80;;;;;;;15.64;61.99;101948.44;3554203;40;20131;-65
2022/06/02 07:06:44;;;;;;;10.95;9.20;;;;;;;15.85;60.56;101948.91;3557869;40;20071;-65
2022/06/02 07:09:42;;;;;;;10.13;9.20;;;;;;;15.76;60.82;101953.97;3558503;40;20104;-65
2022/06/02 07:12:51;;;;;;;11.80;9.50;;;;;;;15.67;60.57;101951.00;3558873;40;20065;-63
2022/06/02 07:15:33;;;;;;;9.48;8.57;;;;;;;15.60;59.73;101957.72;3558340;40;20060;-65
2022/06/02 07:18:11;;;;;;;10.55;9.02;;;;;;;15.85;59.33;101960.59;3553726;40;20065;-62
2022/06/02 07:21:04;;;;;;;7.85;7.15;;;;;;;16.06;58.99;101968.31;3556060;40;20065;-63
2022/06/02 07:24:06;;;;;;;6.78;5.95;;;;;;;16.15;56.29;101974.00;3556834;40;20138;-65
2022/06/02 07:26:46;;;;;;;7.57;6.55;;;;;;;16.10;56.02;101973.41;3556666;40;20569;-64
2022/06/02 07:29:42;;;;;;;10.80;6.50;;;;;;;16.29;57.12;101969.47;3556158;40;20056;-64
2022/06/02 07:32:11;;;;;;;7.40;5.75;;;;;;;16.63;57.13;101973.47;3559886;40;20053;-64
2022/06/02 07:34:52;;;;;;;6.50;5.85;;;;;;;16.60;55.35;101976.38;3558974;40;20066;-65
2022/06/02 07:37:52;;;;;;;6.90;6.20;;;;;;;16.53;55.17;101981.38;3557723;40;20057;-64
2022/06/02 07:40:38;;;;;;;7.55;6.85;;;;;;;16.72;57.07;101983.69;3560350;40;20081;-63
2022/06/02 07:43:31;;;;;;;8.60;7.30;;;;;;;17.08;54.89;101974.81;3560473;40;20060;-64
2022/06/02 07:46:17;;;;;;;8.13;7.32;;;;;;;16.96;54.83;101980.25;3558856;40;20054;-64
2022/06/02 07:49:32;;;;;;;7.03;6.32;;;;;;;16.84;55.37;101976.56;3557675;40;20362;-64
2022/06/02 07:52:33;;;;;;;6.72;5.68;;;;;;;16.61;54.94;101976.28;3559446;40;20061;-64
2022/06/02 07:55:25;;;;;;;14.73;11.02;;;;;;;16.45;55.28;101981.88;3560143;40;20052;-64
2022/06/02 07:58:21;;;;;;;6.85;6.15;;;;;;;16.33;55.16;101971.84;3558579;40;20045;-65
2022/06/02 08:01:18;;;;;;;6.28;5.68;;;;;;;16.62;55.48;101960.88;3561730;40;20064;-65
2022/06/02 08:04:18;;;;;;;7.03;4.75;;;;;;;17.04;53.66;101957.00;3559025;40;20314;-65
2022/06/02 08:07:02;;;;;;;7.43;5.13;;;;;;;17.24;52.80;101963.72;3559421;40;20049;-65
2022/06/02 08:09:51;;;;;;;6.28;5.22;;;;;;;17.44;51.19;101948.69;3558775;40;20087;-66
2022/06/02 08:12:39;;;;;;;6.68;4.97;;;;;;;17.81;51.04;101973.22;3558969;40;20056;-65
2022/06/02 08:15:14;;;;;;;4.90;4.47;;;;;;;18.19;49.59;101969.47;3558563;40;20764;-66
2022/06/02 08:18:10;;;;;;;5.35;4.88;;;;;;;18.70;50.11;101967.31;3560148;40;20057;-63
2022/06/02 08:21:28;;;;;;;5.07;4.25;;;;;;;18.94;49.15;101955.53;3559667;40;20061;-63
2022/06/02 08:24:07;;;;;;;5.65;5.15;;;;;;;19.25;48.26;101963.00;3559925;40;20073;-63
2022/06/02 08:27:05;;;;;;;7.47;6.60;;;;;;;19.53;47.24;101965.31;3558885;40;20053;-64
2022/06/02 08:30:10;;;;;;;5.82;4.78;;;;;;;19.87;45.50;101971.63;3559276;40;20060;-62
2022/06/02 08:33:39;;;;;;;8.38;6.57;;;;;;;20.04;48.84;101965.63;3559949;40;20061;-61
2022/06/02 08:36:22;;;;;;;8.50;7.53;;;;;;;20.29;47.21;101964.41;3559574;40;20067;-62
2022/06/02 08:39:32;;;;;;;8.15;6.35;;;;;;;20.45;45.72;101972.16;3557879;40;20135;-63
2022/06/02 08:42:33;;;;;;;7.22;6.13;;;;;;;20.44;44.37;101984.09;3559919;40;20487;-63
2022/06/02 08:45:55;;;;;;;7.78;5.72;;;;;;;20.18;45.17;101970.81;3559234;40;20069;-65
2022/06/02 08:48:51;;;;;;;8.38;5.75;;;;;;;19.94;45.29;101981.03;3562057;40;20089;-64
2022/06/02 08:52:04;;;;;;;6.65;6.05;;;;;;;19.42;44.55;101977.13;3561486;40;20054;-65
2022/06/02 08:54:50;;;;;;;6.25;5.75;;;;;;;19.04;47.08;101977.47;3562734;40;20061;-65
2022/06/02 08:57:44;;;;;;;6.75;4.63;;;;;;;18.64;45.90;101967.78;3563509;40;20054;-62
2022/06/02 09:00:53;;;;;;;6.97;4.82;;;;;;;18.31;47.64;101983.03;3563657;40;20699;-62
2022/06/02 09:04:19;;;;;;;5.43;4.93;;;;;;;18.43;46.75;101974.94;3564653;40;20057;-62
2022/06/02 09:07:19;;;;;;;6.18;5.28;;;;;;;18.88;46.36;101969.63;3540497;40;20057;-62
2022/06/02 09:10:22;;;;;;;4.80;4.40;;;;;;;19.36;44.87;101978.47;3560864;40;20087;-63
2022/06/02 09:13:29;;;;;;;5.47;3.92;;;;;;;19.59;46.49;101982.06;3559300;40;20146;-63
2022/06/02 09:16:29;;;;;;;4.40;3.83;;;;;;;20.34;44.12;101983.16;3551667;40;20064;-63
2022/06/02 09:19:25;;;;;;;4.80;4.13;;;;;;;20.79;42.50;101993.91;3559543;40;20088;-63
2022/06/02 09:22:20;;;;;;;4.47;3.90;;;;;;;20.99;41.28;101979.34;3559864;40;20045;-63
2022/06/02 09:25:17;;;;;;;5.82;3.75;;;;;;;21.26;42.20;101975.19;3551156;40;20053;-62
2022/06/02 09:28:07;;;;;;;5.32;4.28;;;;;;;21.48;41.40;101980.50;3561047;40;20064;-63
2022/06/02 09:30:56;;;;;;;4.78;4.38;;;;;;;21.58;40.20;101968.75;3562436;40;20100;-62
2022/06/02 09:33:54;;;;;;;6.10;4.25;;;;;;;21.61;40.99;101973.94;3560491;40;20455;-62
2022/06/02 09:37:09;;;;;;;4.82;4.43;;;;;;;21.42;40.77;101966.53;3563514;40;20053;-63
2022/06/02 09:39:56;;;;;;;4.90;4.50;;;;;;;21.69;39.50;101971.34;3561673;40;20063;-62
2022/06/02 09:42:27;;;;;;;7.45;4.30;;;;;;;21.82;40.88;101971.09;3560257;40;20155;-62
2022/06/02 09:45:20;;;;;;;4.75;4.35;;;;;;;22.05;38.56;101971.75;3559589;40;20371;-63
2022/06/02 09:48:31;;;;;;;4.50;4.05;;;;;;;22.03;39.33;101969.13;3560568;40;20072;-64
2022/06/02 09:51:03;;;;;;;5.78;4.18;;;;;;;21.98;38.20;101965.97;3544673;40;20050;-64
2022/06/02 09:53:44;;;;;;;4.40;3.58;;;;;;;22.03;38.05;101970.00;3561298;40;20053;-66
2022/06/02 09:56:37;;;;;;;4.32;3.90;;;;;;;21.48;37.93;101859.28;3563154;40;20179;-64
2022/06/02 09:59:17;;;;;;;3.72;3.42;;;;;;;22.12;37.20;101967.41;3561336;40;20045;-63
2022/06/02 10:02:49;;;;;;;4.57;4.18;;;;;;;22.44;37.09;101962.56;3559274;40;20061;-63
2022/06/02 10:05:29;;;;;;;5.10;4.55;;;;;;;22.68;38.19;101969.47;3529359;40;20127;-65
2022/06/02 10:08:20;;;;;;;4.85;4.45;;;;;;;22.67;38.09;101965.84;3530186;40;20080;-62
2022/06/02 10:11:01;;;;;;;5.30;4.70;;;;;;;22.89;38.04;101967.41;3553591;40;20489;-61
2022/06/02 10:13:55;;;;;;;5.13;4.65;;;;;;;23.14;36.55;101957.69;3561319;40;20487;-61
2022/06/02 10:16:53;;;;;;;6.35;4.70;;;;;;;22.99;35.96;101961.06;3561162;40;20057;-61
2022/06/02 10:20:07;;;;;;;4.75;4.32;;;;;;;23.09;38.08;101954.56;3559386;40;20089;-61
2022/06/02 10:22:55;;;;;;;4.10;3.80;;;;;;;23.15;35.82;101959.44;3558534;40;20465;-61
2022/06/02 10:25:34;;;;;;;5.15;4.75;;;;;;;23.26;38.38;101965.75;3560936;40;20049;-62
2022/06/02 10:28:49;;;;;;;5.30;4.90;;;;;;;23.27;37.58;101956.50;3561021;40;20467;-62
2022/06/02 10:31:38;;;;;;;6.53;5.93;;;;;;;23.29;35.49;101954.47;3560785;40;20414;-63
2022/06/02 10:34:57;;;;;;;5.55;5.05;;;;;;;23.34;38.38;101953.03;3561316;40;20079;-63
2022/06/02 10:37:25;;;;;;;5.53;5.03;;;;;;;23.00;36.11;101951.84;3561007;40;20053;-63
2022/06/02 10:40:08;;;;;;;4.60;4.20;;;;;;;23.09;37.11;101950.94;3561110;40;20093;-63
2022/06/02 10:43:21;;;;;;;4.65;3.90;;;;;;;23.01;36.43;101948.09;3560031;40;20049;-62
2022/06/02 10:46:11;;;;;;;6.10;4.93;;;;;;;22.67;37.76;101951.28;3545400;40;20092;-62
2022/06/02 10:49:12;;;;;;;5.57;5.00;;;;;;;22.73;37.27;101958.94;3558647;40;20376;-63
2022/06/02 10:52:24;;;;;;;4.65;4.25;;;;;;;23.11;37.16;101948.91;3559558;40;20060;-62
2022/06/02 10:55:33;;;;;;;5.18;4.68;;;;;;;23.02;36.72;101947.06;3557874;40;20308;-62
2022/06/02 10:58:20;;;;;;;5.70;5.20;;;;;;;22.57;36.84;101942.22;3557450;40;21301;-63
2022/06/02 11:01:21;;;;;;;5.90;4.85;;;;;;;22.45;41.17;101936.91;3559421;40;20085;-62
2022/06/02 11:04:33;;;;;;;5.10;4.53;;;;;;;23.04;36.16;101942.28;3557550;40;20061;-63
2022/06/02 11:07:43;;;;;;;3.83;3.53;;;;;;;22.86;35.79;101940.28;3557748;40;20158;-63
2022/06/02 11:10:26;;;;;;;3.97;3.58;;;;;;;22.63;35.78;101938.88;3560557;40;20048;-63
2022/06/02 11:13:32;;;;;;;4.82;3.53;;;;;;;23.16;37.23;101935.63;3559505;40;20073;-63
2022/06/02 11:16:34;;;;;;;4.25;3.58;;;;;;;23.33;35.87;101932.06;3558404;40;20056;-63
2022/06/02 11:19:44;;;;;;;5.00;4.15;;;;;;;24.14;34.68;101934.06;3559091;40;20072;-61
2022/06/02 11:22:37;;;;;;;3.58;3.25;;;;;;;24.44;31.65;101937.47;3559093;40;20073;-61
2022/06/02 11:25:59;;;;;;;3.55;2.75;;;;;;;24.93;32.20;101938.72;3561158;40;20061;-62
2022/06/02 11:28:55;;;;;;;3.00;2.80;;;;;;;25.17;30.73;101929.75;3560112;40;20068;-62
2022/06/02 11:32:19;;;;;;;3.17;2.97;;;;;;;25.33;30.11;101930.88;3560963;40;20077;-63
2022/06/02 11:34:59;;;;;;;3.33;3.05;;;;;;;25.54;32.03;101920.28;3551946;40;20064;-61
2022/06/02 11:37:54;;;;;;;3.13;2.80;;;;;;;25.81;30.48;101915.56;3552939;40;20074;-62
2022/06/02 11:40:48;;;;;;;7.68;3.10;;;;;;;25.77;29.89;101916.91;3559836;40;20057;-62
2022/06/02 11:43:24;;;;;;;2.78;2.58;;;;;;;25.65;30.18;101911.72;3559693;40;20066;-62
2022/06/02 11:46:40;;;;;;;2.97;2.78;;;;;;;25.64;30.59;101910.00;3559748;40;20056;-62
2022/06/02 11:49:37;;;;;;;3.67;3.33;;;;;;;25.40;31.97;101902.50;3561371;40;20053;-62
2022/06/02 11:52:21;;;;;;;3.90;3.30;;;;;;;25.40;30.00;101907.16;3559225;40;20077;-62
2022/06/02 11:55:14;;;;;;;3.65;3.40;;;;;;;25.39;32.16;101899.91;3558779;40;20123;-62
2022/06/02 11:58:28;;;;;;;4.95;3.88;;;;;;;25.44;31.50;101892.91;3558924;40;20053;-62
2022/06/02 12:01:17;;;;;;;4.75;4.10;;;;;;;25.36;31.40;101895.59;3559889;40;20049;-62
2022/06/02 12:04:09;;;;;;;4.03;3.72;;;;;;;25.82;32.77;101890.63;3559749;40;20053;-62
2022/06/02 12:06:52;;;;;;;3.85;3.55;;;;;;;25.85;31.81;101886.69;3558865;40;20057;-62
2022/06/02 12:10:01;;;;;;;4.03;3.40;;;;;;;25.08;30.47;101886.66;3560547;40;20049;-63
2022/06/02 12:13:04;;;;;;;4.07;3.22;;;;;;;24.89;33.03;101885.00;3560585;40;20061;-62
2022/06/02 12:16:24;;;;;;;3.42;3.13;;;;;;;25.16;33.18;101877.63;3560100;40;20060;-63
2022/06/02 12:19:20;;;;;;;3.88;3.00;;;;;;;25.71;30.03;101866.97;3559218;40;20042;-62
2022/06/02 12:22:30;;;;;;;3.97;3.00;;;;;;;26.03;29.69;101869.97;3558516;40;20053;-63
2022/06/02 12:25:21;;;;;;;4.25;2.90;;;;;;;26.22;28.93;101868.78;3559715;40;20057;-63
2022/06/02 12:28:41;;;;;;;3.90;3.60;;;;;;;26.15;28.06;101863.97;3560399;40;20057;-63
2022/06/02 12:32:04;;;;;;;3.08;2.88;;;;;;;26.09;27.01;101864.66;3559250;40;20052;-62
2022/06/02 12:35:01;;;;;;;3.30;3.05;;;;;;;26.37;28.42;101872.56;3561230;40;20084;-62
2022/06/02 12:37:59;;;;;;;5.10;3.40;;;;;;;26.41;28.13;101868.44;3560802;40;20060;-63
2022/06/02 12:40:35;;;;;;;3.47;3.20;;;;;;;26.55;27.95;101853.97;3560199;40;20411;-62
2022/06/02 12:44:07;;;;;;;3.83;3.50;;;;;;;26.51;27.98;101863.63;3560610;40;20068;-62
2022/06/02 12:47:00;;;;;;;3.97;3.08;;;;;;;26.35;28.51;101847.06;3558412;40;20372;-63
2022/06/02 12:49:55;;;;;;;3.42;3.00;;;;;;;26.51;27.52;101837.94;3561085;40;20359;-63
2022/06/02 12:52:48;;;;;;;6.15;3.25;;;;;;;26.27;28.00;101845.19;3561762;40;20061;-63
2022/06/02 12:55:53;;;;;;;3.83;2.73;;;;;;;26.24;29.05;101839.16;3558521;40;20057;-63
2022/06/02 12:58:57;;;;;;;2.65;2.45;;;;;;;26.48;29.14;101839.16;3557185;40;20057;-62
2022/06/02 13:01:31;;;;;;;2.63;2.30;;;;;;;26.77;28.67;101835.84;3559007;40;20124;-62
2022/06/02 13:04:25;;;;;;;2.88;2.67;;;;;;;26.82;28.85;101827.00;3559027;40;20128;-62
2022/06/02 13:06:56;;;;;;;3.72;3.13;;;;;;;26.87;28.42;101835.63;3558136;40;20128;-62
2022/06/02 13:09:30;;;;;;;5.05;3.25;;;;;;;26.69;29.70;101824.81;3556594;40;20404;-62
2022/06/02 13:12:19;;;;;;;3.17;2.88;;;;;;;26.65;28.04;101830.88;3559655;40;20045;-62
2022/06/02 13:15:40;;;;;;;4.85;3.13;;;;;;;26.50;28.29;101834.31;3558987;40;20052;-62
2022/06/02 13:18:20;;;;;;;3.83;3.53;;;;;;;26.30;29.02;101831.06;3548102;40;20041;-63
2022/06/02 13:21:36;;;;;;;3.33;2.72;;;;;;;26.26;30.21;101826.94;3558523;40;20079;-64
2022/06/02 13:24:27;;;;;;;3.63;3.33;;;;;;;26.16;29.38;101827.13;3559642;40;20065;-63
2022/06/02 13:27:31;;;;;;;3.00;2.80;;;;;;;26.05;27.80;101829.34;3558233;40;20049;-63
2022/06/02 13:30:46;;;;;;;3.30;2.97;;;;;;;26.02;29.77;101832.44;3559144;40;21331;-62
2022/06/02 13:33:56;;;;;;;3.42;3.13;;;;;;;25.77;28.25;101821.38;3560520;40;20053;-63
2022/06/02 13:36:52;;;;;;;3.28;2.88;;;;;;;25.76;28.34;101824.31;3556477;40;20445;-63
2022/06/02 13:39:39;;;;;;;3.47;2.75;;;;;;;25.68;28.60;101834.25;3557866;40;20053;-63